createdAt,value
2022-11-15T00:01:12.300Z,8.68
2022-11-15T00:03:39.066Z,8.67
2022-11-15T00:06:06.128Z,8.59
2022-11-15T00:08:33.769Z,8.66
2022-11-15T00:11:03.267Z,8.70
2022-11-15T00:13:31.263Z,8.75
2022-11-15T00:16:01.305Z,8.75
2022-11-15T00:18:29.221Z,8.65
2022-11-15T00:21:03.089Z,8.79
2022-11-15T00:23:30.261Z,8.80
2022-11-15T00:25:59.094Z,8.76
2022-11-15T00:28:26.851Z,8.85
2022-11-15T00:30:53.708Z,8.88
2022-11-15T00:33:20.656Z,8.87
2022-11-15T00:35:47.537Z,8.90
2022-11-15T00:38:14.412Z,8.92
2022-11-15T00:40:41.340Z,8.91
2022-11-15T00:43:08.109Z,8.90
2022-11-15T00:45:35.096Z,8.84
2022-11-15T00:48:01.895Z,8.83
2022-11-15T00:50:28.635Z,8.80
2022-11-15T00:52:55.441Z,8.82
2022-11-15T00:55:22.291Z,8.81
2022-11-15T00:57:49.130Z,8.81
2022-11-15T01:00:16.258Z,8.82
2022-11-15T01:02:42.997Z,8.79
2022-11-15T01:05:10.073Z,8.73
2022-11-15T01:07:37.362Z,8.69
2022-11-15T01:10:05.438Z,8.76
2022-11-15T01:12:32.903Z,8.70
2022-11-15T01:14:59.699Z,8.76
2022-11-15T01:17:26.482Z,8.71
2022-11-15T01:19:53.550Z,8.72
2022-11-15T01:22:20.338Z,8.71
2022-11-15T01:24:47.131Z,8.69
2022-11-15T01:27:13.911Z,8.68
2022-11-15T01:29:40.733Z,8.60
2022-11-15T01:32:07.491Z,8.61
2022-11-15T01:34:34.469Z,8.53
2022-11-15T01:37:01.297Z,8.53
2022-11-15T01:39:28.146Z,8.48
2022-11-15T01:41:55.212Z,8.48
2022-11-15T01:44:49.624Z,8.47
2022-11-15T01:47:27.365Z,8.44
2022-11-15T01:50:01.529Z,8.40
2022-11-15T01:52:31.877Z,8.45
2022-11-15T01:55:14.342Z,8.34
2022-11-15T01:57:43.811Z,8.36
2022-11-15T02:00:11.763Z,8.29
2022-11-15T02:02:38.935Z,8.24
2022-11-15T02:05:06.090Z,8.32
2022-11-15T02:07:35.471Z,8.28
2022-11-15T02:10:17.998Z,8.28
2022-11-15T02:12:45.615Z,8.27
2022-11-15T02:15:12.830Z,8.14
2022-11-15T02:18:11.625Z,8.22
2022-11-15T02:20:48.285Z,8.19
2022-11-15T02:23:42.096Z,8.20
2022-11-15T02:26:29.912Z,8.13
2022-11-15T02:29:25.651Z,8.16
2022-11-15T02:32:27.480Z,8.09
2022-11-15T02:35:51.055Z,8.09
2022-11-15T02:38:36.910Z,8.04
2022-11-15T02:41:20.152Z,8.02
2022-11-15T02:43:59.777Z,7.96
2022-11-15T02:46:58.603Z,8.04
2022-11-15T02:49:29.404Z,7.95
2022-11-15T02:51:56.872Z,7.84
2022-11-15T02:54:27.864Z,7.98
2022-11-15T02:56:59.277Z,7.95
2022-11-15T02:59:50.576Z,7.96
2022-11-15T03:02:42.529Z,7.93
2022-11-15T03:05:51.138Z,7.86
2022-11-15T03:08:33.966Z,7.85
2022-11-15T03:11:18.606Z,7.86
2022-11-15T03:14:20.275Z,7.85
2022-11-15T03:17:05.088Z,7.86
2022-11-15T03:20:05.060Z,7.88
2022-11-15T03:22:38.046Z,7.88
2022-11-15T03:25:09.881Z,7.88
2022-11-15T03:27:42.669Z,7.89
2022-11-15T03:30:10.477Z,7.87
2022-11-15T03:32:43.013Z,7.84
2022-11-15T03:35:20.416Z,7.86
2022-11-15T03:38:13.039Z,7.87
2022-11-15T03:41:01.250Z,7.85
2022-11-15T03:43:49.913Z,7.80
2022-11-15T03:46:33.494Z,7.88
2022-11-15T03:49:25.409Z,7.86
2022-11-15T03:51:52.271Z,7.91
2022-11-15T03:54:19.036Z,7.91
2022-11-15T03:56:45.834Z,7.78
2022-11-15T03:59:12.693Z,7.85
2022-11-15T04:01:39.477Z,7.81
2022-11-15T04:04:06.302Z,7.91
2022-11-15T04:06:33.077Z,7.82
2022-11-15T04:08:59.817Z,7.87
2022-11-15T04:11:26.570Z,7.83
2022-11-15T04:13:53.406Z,7.89
2022-11-15T04:16:20.178Z,7.94
2022-11-15T04:19:06.896Z,7.91
2022-11-15T04:21:52.128Z,7.82
2022-11-15T04:24:18.999Z,7.88
2022-11-15T04:26:45.744Z,7.90
2022-11-15T04:29:31.185Z,7.85
2022-11-15T04:31:57.960Z,7.81
2022-11-15T04:34:24.919Z,7.85
2022-11-15T04:37:10.272Z,7.85
2022-11-15T04:39:37.091Z,7.83
2022-11-15T04:42:04.009Z,7.82
2022-11-15T04:44:30.776Z,7.82
2022-11-15T04:46:57.765Z,7.79
2022-11-15T04:49:24.544Z,7.75
2022-11-15T04:51:51.384Z,7.75
2022-11-15T04:54:18.210Z,7.68
2022-11-15T04:56:44.998Z,7.69
2022-11-15T04:59:11.771Z,7.67
2022-11-15T05:01:43.556Z,7.64
2022-11-15T05:04:20.257Z,7.61
2022-11-15T05:06:52.570Z,7.61
2022-11-15T05:09:21.230Z,7.62
2022-11-15T05:11:48.296Z,7.58
2022-11-15T05:14:15.799Z,7.58
2022-11-15T05:16:43.271Z,7.56
2022-11-15T05:19:10.025Z,7.59
2022-11-15T05:21:37.297Z,7.56
2022-11-15T05:24:04.458Z,7.62
2022-11-15T05:26:31.548Z,7.54
2022-11-15T05:28:59.887Z,7.58
2022-11-15T05:31:28.236Z,7.56
2022-11-15T05:33:57.408Z,7.57
2022-11-15T05:36:37.721Z,7.57
2022-11-15T05:39:09.196Z,7.57
2022-11-15T05:41:51.192Z,7.59
2022-11-15T05:44:22.653Z,7.60
2022-11-15T05:46:51.649Z,7.60
2022-11-15T05:49:22.398Z,7.66
2022-11-15T05:51:50.707Z,7.64
2022-11-15T05:54:18.629Z,7.62
2022-11-15T05:56:45.532Z,7.63
2022-11-15T05:59:12.938Z,7.45
2022-11-15T06:01:40.621Z,7.59
2022-11-15T06:04:07.661Z,7.55
2022-11-15T06:06:34.422Z,7.58
2022-11-15T06:09:01.398Z,7.55
2022-11-15T06:11:28.993Z,7.60
2022-11-15T06:13:55.948Z,7.59
2022-11-15T06:16:22.783Z,7.55
2022-11-15T06:18:49.629Z,7.62
2022-11-15T06:21:16.475Z,7.53
2022-11-15T06:23:43.498Z,7.59
2022-11-15T06:26:10.287Z,7.60
2022-11-15T06:28:37.128Z,7.58
2022-11-15T06:31:12.126Z,7.55
2022-11-15T06:33:39.980Z,7.46
2022-11-15T06:36:17.694Z,7.54
2022-11-15T06:38:45.893Z,7.56
2022-11-15T06:41:14.825Z,7.56
2022-11-15T06:43:42.092Z,7.57
2022-11-15T06:46:09.471Z,7.51
2022-11-15T06:48:37.113Z,7.49
2022-11-15T06:51:05.343Z,7.54
2022-11-15T06:53:33.412Z,7.43
2022-11-15T06:56:06.868Z,7.55
2022-11-15T06:58:34.369Z,7.47
2022-11-15T07:01:07.758Z,7.54
2022-11-15T07:03:40.170Z,7.58
2022-11-15T07:06:08.103Z,7.59
2022-11-15T07:08:36.286Z,7.60
2022-11-15T07:11:07.214Z,7.62
2022-11-15T07:13:35.733Z,7.64
2022-11-15T07:16:08.516Z,7.62
2022-11-15T07:18:40.471Z,7.62
2022-11-15T07:21:12.170Z,7.61
2022-11-15T07:23:39.978Z,7.55
2022-11-15T07:26:08.209Z,7.65
2022-11-15T07:28:35.551Z,7.65
2022-11-15T07:31:08.064Z,7.64
2022-11-15T07:33:36.440Z,7.63
2022-11-15T07:36:06.833Z,7.67
2022-11-15T07:38:40.988Z,7.69
2022-11-15T07:41:09.249Z,7.72
2022-11-15T07:43:36.391Z,7.73
2022-11-15T07:46:10.095Z,7.75
2022-11-15T07:48:45.145Z,7.76
2022-11-15T07:51:17.025Z,7.78
2022-11-15T07:53:44.904Z,7.74
2022-11-15T07:56:12.970Z,7.82
2022-11-15T07:58:39.740Z,7.74
2022-11-15T08:01:09.066Z,7.82
2022-11-15T08:03:37.441Z,7.90
2022-11-15T08:06:04.516Z,7.85
2022-11-15T08:08:31.309Z,7.94
2022-11-15T08:11:01.936Z,7.98
2022-11-15T08:13:28.981Z,8.04
2022-11-15T08:16:01.173Z,8.03
2022-11-15T08:18:27.955Z,8.04
2022-11-15T08:20:59.925Z,8.12
2022-11-15T08:23:26.816Z,8.11
2022-11-15T08:25:53.609Z,8.16
2022-11-15T08:28:20.360Z,8.21
2022-11-15T08:30:47.245Z,8.22
2022-11-15T08:33:15.116Z,8.28
2022-11-15T08:35:43.785Z,8.35
2022-11-15T08:38:11.087Z,8.40
2022-11-15T08:40:38.530Z,8.43
2022-11-15T08:43:05.558Z,8.44
2022-11-15T08:45:34.900Z,8.51
2022-11-15T08:48:05.155Z,8.54
2022-11-15T08:50:31.972Z,8.57
2022-11-15T08:52:58.942Z,8.60
2022-11-15T08:55:25.820Z,8.65
2022-11-15T08:57:52.650Z,8.71
2022-11-15T09:00:20.878Z,8.73
2022-11-15T09:02:47.810Z,8.74
2022-11-15T09:05:16.370Z,8.78
2022-11-15T09:07:43.153Z,8.81
2022-11-15T09:10:10.174Z,8.73
2022-11-15T09:12:37.016Z,8.87
2022-11-15T09:15:05.668Z,8.91
2022-11-15T09:17:32.528Z,8.95
2022-11-15T09:19:59.559Z,8.98
2022-11-15T09:22:26.428Z,9.02
2022-11-15T09:24:53.195Z,9.04
2022-11-15T09:27:20.035Z,9.09
2022-11-15T09:29:46.812Z,9.12
2022-11-15T09:32:13.599Z,9.15
2022-11-15T09:34:40.348Z,9.06
2022-11-15T09:37:07.113Z,9.24
2022-11-15T09:39:34.012Z,9.26
2022-11-15T09:42:36.213Z,9.31
2022-11-15T09:45:21.691Z,9.15
2022-11-15T09:48:38.303Z,9.35
2022-11-15T09:51:10.164Z,9.38
2022-11-15T09:54:37.586Z,9.41
2022-11-15T09:56:43.508Z,9.42
2022-11-15T09:59:46.716Z,9.50
2022-11-15T10:02:47.229Z,9.54
2022-11-15T10:05:19.588Z,9.56
2022-11-15T10:08:35.762Z,9.60
2022-11-15T10:11:36.767Z,9.54
2022-11-15T10:14:00.391Z,9.65
2022-11-15T10:16:44.930Z,9.69
2022-11-15T10:19:36.121Z,9.73
2022-11-15T10:22:39.478Z,9.77
2022-11-15T10:25:32.244Z,9.64
2022-11-15T10:28:14.839Z,9.88
2022-11-15T10:30:46.006Z,9.92
2022-11-15T10:33:30.247Z,9.96
2022-11-15T10:36:18.198Z,10.00
2022-11-15T10:38:50.957Z,10.04
2022-11-15T10:41:21.919Z,10.09
2022-11-15T10:44:17.755Z,10.12
2022-11-15T10:46:49.554Z,10.16
2022-11-15T10:49:32.075Z,10.21
2022-11-15T10:52:12.748Z,10.25
2022-11-15T10:54:49.610Z,10.29
2022-11-15T10:57:23.928Z,10.33
2022-11-15T11:00:00.465Z,10.36
2022-11-15T11:03:00.102Z,10.41
2022-11-15T11:05:29.113Z,10.44
2022-11-15T11:08:10.604Z,10.46
2022-11-15T11:10:51.726Z,10.50
2022-11-15T11:13:36.767Z,10.53
2022-11-15T11:16:15.667Z,10.56
2022-11-15T11:19:18.863Z,10.60
2022-11-15T11:22:07.178Z,10.57
2022-11-15T11:24:40.391Z,10.65
2022-11-15T11:27:38.203Z,10.69
2022-11-15T11:30:29.721Z,10.73
2022-11-15T11:33:14.056Z,10.75
2022-11-15T11:35:58.857Z,10.78
2022-11-15T11:39:16.622Z,10.83
2022-11-15T11:42:33.163Z,10.88
2022-11-15T11:45:17.520Z,10.92
2022-11-15T11:48:20.798Z,10.94
2022-11-15T11:50:48.163Z,10.97
2022-11-15T11:53:33.938Z,11.01
2022-11-15T11:56:19.373Z,11.04
2022-11-15T11:58:48.408Z,11.07
2022-11-15T12:01:30.486Z,11.18
2022-11-15T12:04:22.402Z,11.20
2022-11-15T12:07:12.084Z,11.22
2022-11-15T12:10:00.670Z,11.25
2022-11-15T12:12:40.565Z,11.29
2022-11-15T12:15:10.543Z,11.31
2022-11-15T12:17:39.816Z,11.35
2022-11-15T12:20:28.288Z,11.37
2022-11-15T12:23:15.836Z,11.41
2022-11-15T12:26:20.907Z,11.42
2022-11-15T12:29:09.015Z,11.44
2022-11-15T12:31:36.065Z,11.47
2022-11-15T12:34:17.285Z,11.50
2022-11-15T12:36:45.356Z,11.52
2022-11-15T12:39:13.922Z,11.54
2022-11-15T12:42:11.711Z,11.55
2022-11-15T12:44:39.175Z,11.56
2022-11-15T12:47:24.787Z,11.51
2022-11-15T12:49:52.810Z,11.52
2022-11-15T12:52:20.464Z,11.61
2022-11-15T12:54:56.809Z,11.62
2022-11-15T12:57:34.060Z,11.65
2022-11-15T13:00:15.598Z,11.66
2022-11-15T13:02:46.213Z,11.67
2022-11-15T13:05:19.401Z,11.69
2022-11-15T13:07:46.337Z,11.70
2022-11-15T13:10:13.086Z,11.70
2022-11-15T13:12:45.513Z,11.72
2022-11-15T13:15:18.168Z,11.72
2022-11-15T13:17:53.444Z,11.67
2022-11-15T13:20:30.723Z,11.73
2022-11-15T13:23:17.517Z,11.76
2022-11-15T13:26:05.752Z,11.78
2022-11-15T13:28:45.168Z,11.79
2022-11-15T13:31:38.812Z,11.80
2022-11-15T13:37:21.103Z,11.83
2022-11-15T13:39:51.507Z,11.84
2022-11-15T13:42:21.538Z,11.86
2022-11-15T13:45:02.843Z,11.86
2022-11-15T13:47:30.632Z,11.81
2022-11-15T13:50:02.072Z,11.88
2022-11-15T13:52:38.007Z,11.89
2022-11-15T13:55:23.835Z,11.91
2022-11-15T13:58:00.942Z,11.93
2022-11-15T14:00:44.757Z,11.93
2022-11-15T14:03:33.060Z,11.94
2022-11-15T14:06:16.942Z,11.87
2022-11-15T14:09:10.874Z,11.96
2022-11-15T14:11:38.718Z,11.93
2022-11-15T14:14:16.308Z,11.90
2022-11-15T14:16:46.705Z,11.97
2022-11-15T14:19:24.384Z,11.98
2022-11-15T14:22:23.250Z,11.99
2022-11-15T14:25:08.798Z,12.00
2022-11-15T14:27:35.692Z,12.00
2022-11-15T14:30:03.444Z,12.01
2022-11-15T14:32:47.573Z,12.01
2022-11-15T14:35:20.493Z,12.02
2022-11-15T14:37:48.080Z,12.02
2022-11-15T14:40:18.798Z,12.04
2022-11-15T14:42:47.520Z,12.04
2022-11-15T14:45:21.260Z,12.04
2022-11-15T14:47:48.870Z,12.06
2022-11-15T14:50:21.729Z,12.05
2022-11-15T14:52:49.633Z,12.06
2022-11-15T14:55:22.210Z,12.06
2022-11-15T14:57:49.036Z,12.05
2022-11-15T15:00:16.872Z,12.07
2022-11-15T15:02:46.427Z,12.06
2022-11-15T15:05:20.883Z,12.10
2022-11-15T15:07:48.721Z,12.11
2022-11-15T15:10:39.054Z,12.09
2022-11-15T15:13:05.679Z,12.10
2022-11-15T15:15:37.925Z,12.10
2022-11-15T15:18:06.065Z,12.05
2022-11-15T15:20:33.545Z,12.04
2022-11-15T15:23:00.309Z,12.11
2022-11-15T15:25:36.039Z,12.11
2022-11-15T15:28:03.349Z,12.11
2022-11-15T15:30:31.808Z,11.99
2022-11-15T15:32:58.643Z,12.12
2022-11-15T15:35:31.348Z,12.12
2022-11-15T15:37:58.157Z,12.13
2022-11-15T15:40:26.678Z,12.11
2022-11-15T15:42:53.465Z,12.12
2022-11-15T15:45:20.582Z,12.13
2022-11-15T15:47:48.024Z,12.14
2022-11-15T15:50:29.256Z,12.16
2022-11-15T15:52:58.921Z,12.15
2022-11-15T15:55:26.476Z,12.14
2022-11-15T15:57:53.555Z,12.14
2022-11-15T16:00:22.150Z,12.14
2022-11-15T16:02:48.882Z,12.15
2022-11-15T16:05:16.442Z,12.18
2022-11-15T16:07:44.204Z,12.10
2022-11-15T16:10:31.160Z,12.15
2022-11-15T16:12:59.093Z,12.15
2022-11-15T16:15:29.128Z,12.14
2022-11-15T16:17:59.549Z,12.18
2022-11-15T16:20:38.245Z,12.15
2022-11-15T16:23:09.682Z,12.12
2022-11-15T16:25:56.348Z,12.12
2022-11-15T16:28:26.626Z,12.12
2022-11-15T16:31:09.980Z,12.11
2022-11-15T16:33:37.504Z,12.11
2022-11-15T16:36:06.618Z,12.10
2022-11-15T16:38:33.999Z,12.02
2022-11-15T16:41:01.213Z,12.09
2022-11-15T16:43:28.146Z,12.08
2022-11-15T16:45:55.333Z,12.08
2022-11-15T16:48:27.570Z,12.06
2022-11-15T16:50:59.018Z,12.07
2022-11-15T16:53:27.791Z,12.06
2022-11-15T16:55:55.845Z,12.03
2022-11-15T16:58:22.946Z,12.06
2022-11-15T17:00:54.624Z,12.05
2022-11-15T17:03:22.991Z,12.04
2022-11-15T17:05:50.167Z,12.04
2022-11-15T17:08:17.163Z,11.95
2022-11-15T17:10:44.460Z,12.03
2022-11-15T17:13:13.908Z,12.01
2022-11-15T17:15:40.743Z,12.02
2022-11-15T17:18:15.339Z,12.00
2022-11-15T17:20:43.370Z,12.02
2022-11-15T17:23:14.362Z,12.01
2022-11-15T17:25:41.613Z,12.00
2022-11-15T17:28:08.480Z,12.00
2022-11-15T17:30:35.692Z,12.00
2022-11-15T17:33:02.550Z,12.00
2022-11-15T17:35:29.344Z,11.98
2022-11-15T17:37:56.091Z,11.98
2022-11-15T17:40:22.886Z,11.98
2022-11-15T17:42:49.673Z,11.98
2022-11-15T17:45:16.570Z,11.97
2022-11-15T17:47:43.419Z,11.97
2022-11-15T17:50:10.690Z,11.97
2022-11-15T17:52:37.659Z,11.91
2022-11-15T17:55:04.775Z,11.88
2022-11-15T17:57:31.587Z,11.96
2022-11-15T17:59:58.345Z,11.97
2022-11-15T18:02:25.094Z,11.97
2022-11-15T18:04:51.956Z,11.97
2022-11-15T18:07:18.797Z,11.87
2022-11-15T18:09:45.694Z,11.97
2022-11-15T18:12:12.599Z,11.96
2022-11-15T18:14:39.630Z,11.93
2022-11-15T18:17:06.429Z,11.96
2022-11-15T18:19:33.589Z,11.89
2022-11-15T18:22:01.333Z,11.96
2022-11-15T18:24:33.735Z,11.93
2022-11-15T18:27:03.448Z,11.96
2022-11-15T18:29:30.527Z,11.96
2022-11-15T18:31:58.724Z,11.96
2022-11-15T18:34:31.884Z,11.96
2022-11-15T18:36:58.882Z,11.97
2022-11-15T18:39:25.762Z,11.88
2022-11-15T18:41:52.637Z,11.96
2022-11-15T18:44:19.657Z,11.93
2022-11-15T18:46:46.697Z,11.97
2022-11-15T18:49:16.660Z,11.98
2022-11-15T18:51:43.906Z,11.96
2022-11-15T18:54:15.555Z,11.96
2022-11-15T18:56:44.556Z,11.80
2022-11-15T18:59:11.370Z,11.96
2022-11-15T19:01:43.754Z,11.97
2022-11-15T19:04:14.260Z,11.94
2022-11-15T19:06:43.973Z,11.95
2022-11-15T19:09:15.201Z,11.96
2022-11-15T19:11:43.337Z,11.97
2022-11-15T19:14:15.354Z,11.99
2022-11-15T19:16:55.041Z,11.97
2022-11-15T19:19:25.374Z,11.98
2022-11-15T19:21:52.835Z,11.92
2022-11-15T19:24:19.956Z,11.98
2022-11-15T19:26:47.061Z,11.98
2022-11-15T19:29:14.120Z,11.93
2022-11-15T19:31:42.001Z,11.97
2022-11-15T19:34:09.325Z,11.97
2022-11-15T19:36:39.754Z,11.98
2022-11-15T19:39:11.086Z,11.96
2022-11-15T19:41:43.487Z,11.93
2022-11-15T19:44:12.100Z,11.94
2022-11-15T19:46:39.603Z,11.96
2022-11-15T19:49:07.982Z,11.87
2022-11-15T19:51:34.931Z,11.87
2022-11-15T19:54:06.426Z,11.96
2022-11-15T19:56:34.816Z,11.83
2022-11-15T19:59:03.012Z,11.87
2022-11-15T20:01:33.220Z,11.94
2022-11-15T20:04:00.534Z,11.96
2022-11-15T20:06:31.151Z,11.87
2022-11-15T20:08:58.723Z,11.94
2022-11-15T20:11:26.265Z,11.91
2022-11-15T20:14:01.988Z,11.93
2022-11-15T20:16:29.341Z,11.92
2022-11-15T20:18:56.192Z,11.92
2022-11-15T20:21:23.139Z,11.92
2022-11-15T20:23:50.987Z,11.92
2022-11-15T20:26:19.879Z,11.91
2022-11-15T20:28:48.083Z,11.91
2022-11-15T20:31:16.307Z,11.90
2022-11-15T20:33:43.358Z,11.90
2022-11-15T20:36:13.597Z,11.90
2022-11-15T20:38:40.661Z,11.92
2022-11-15T20:41:07.879Z,11.90
2022-11-15T20:43:34.749Z,11.87
2022-11-15T20:46:01.750Z,11.87
2022-11-15T20:48:28.676Z,11.88
2022-11-15T20:51:17.671Z,11.89
2022-11-15T20:53:45.591Z,11.89
2022-11-15T20:56:23.677Z,11.90
2022-11-15T20:58:51.142Z,11.90
2022-11-15T21:01:24.477Z,11.89
2022-11-15T21:03:55.938Z,11.89
2022-11-15T21:06:25.116Z,11.89
2022-11-15T21:09:11.866Z,11.85
2022-11-15T21:11:57.773Z,11.89
2022-11-15T21:14:24.544Z,11.87
2022-11-15T21:16:51.356Z,11.84
2022-11-15T21:19:19.752Z,11.88
2022-11-15T21:21:49.528Z,11.88
2022-11-15T21:24:16.335Z,11.88
2022-11-15T21:26:43.252Z,11.87
2022-11-15T21:29:09.998Z,11.87
2022-11-15T21:31:37.420Z,11.85
2022-11-15T21:34:04.412Z,11.84
2022-11-15T21:36:31.389Z,11.86
2022-11-15T21:38:58.263Z,11.87
2022-11-15T21:41:25.032Z,11.88
2022-11-15T21:43:51.871Z,11.88
2022-11-15T21:46:18.645Z,11.87
2022-11-15T21:48:45.578Z,11.85
2022-11-15T21:51:12.491Z,11.87
2022-11-15T21:53:39.303Z,11.88
2022-11-15T21:56:06.835Z,11.88
2022-11-15T21:58:33.908Z,11.88
2022-11-15T22:01:20.050Z,11.84
2022-11-15T22:03:47.011Z,11.89
2022-11-15T22:06:17.742Z,11.88
2022-11-15T22:08:46.095Z,11.87
2022-11-15T22:11:13.792Z,11.84
2022-11-15T22:13:40.671Z,11.86
2022-11-15T22:16:08.439Z,11.83
2022-11-15T22:18:35.662Z,11.89
2022-11-15T22:21:11.078Z,11.87
2022-11-15T22:23:38.103Z,11.90
2022-11-15T22:26:06.076Z,11.90
2022-11-15T22:28:33.643Z,11.90
2022-11-15T22:31:00.628Z,11.89
2022-11-15T22:33:30.321Z,11.90
2022-11-15T22:35:58.045Z,11.89
2022-11-15T22:38:26.219Z,11.89
2022-11-15T22:40:53.346Z,11.88
2022-11-15T22:43:23.280Z,11.86
2022-11-15T22:45:57.368Z,11.89
2022-11-15T22:48:30.911Z,11.87
2022-11-15T22:50:58.600Z,11.87
2022-11-15T22:53:26.339Z,11.81
2022-11-15T22:55:55.946Z,11.87
2022-11-15T22:58:25.463Z,11.77
2022-11-15T23:00:55.527Z,11.85
2022-11-15T23:03:23.583Z,11.86
2022-11-15T23:05:51.034Z,11.87
2022-11-15T23:08:18.995Z,11.86
2022-11-15T23:11:04.749Z,11.84
2022-11-15T23:13:32.850Z,11.80
2022-11-15T23:16:25.898Z,11.83
2022-11-15T23:18:57.226Z,11.85
2022-11-15T23:21:55.617Z,11.84
2022-11-15T23:24:23.241Z,11.84
2022-11-15T23:26:55.921Z,11.83
2022-11-15T23:29:25.006Z,11.80
2022-11-15T23:32:12.076Z,11.82
2022-11-15T23:34:42.240Z,11.83
2022-11-15T23:37:12.464Z,11.78
2022-11-15T23:39:39.652Z,11.82
2022-11-15T23:42:09.390Z,11.81
2022-11-15T23:44:36.873Z,11.81
2022-11-15T23:47:03.795Z,11.68
2022-11-15T23:49:30.577Z,11.81
2022-11-15T23:51:57.369Z,11.81
2022-11-15T23:54:24.139Z,11.81
2022-11-15T23:56:50.930Z,11.81
2022-11-15T23:59:18.229Z,11.78
